createdAt,value
2023-02-15T00:00:07.118Z,47.25
2023-02-15T00:02:34.473Z,47.13
2023-02-15T00:05:01.885Z,46.50
2023-02-15T00:07:29.282Z,46.65
2023-02-15T00:09:56.675Z,44.70
2023-02-15T00:12:24.090Z,50.25
2023-02-15T00:14:51.479Z,52.03
2023-02-15T00:17:18.855Z,50.55
2023-02-15T00:19:46.223Z,52.83
2023-02-15T00:22:13.789Z,52.00
2023-02-15T00:24:41.188Z,52.63
2023-02-15T00:27:10.175Z,48.28
2023-02-15T00:29:37.786Z,54.50
2023-02-15T00:32:05.511Z,52.17
2023-02-15T00:34:32.979Z,50.03
2023-02-15T00:37:00.350Z,53.20
2023-02-15T00:39:28.361Z,53.72
2023-02-15T00:41:55.777Z,53.58
2023-02-15T00:44:23.146Z,53.28
2023-02-15T00:46:50.568Z,54.58
2023-02-15T00:49:18.014Z,55.50
2023-02-15T00:51:45.400Z,55.90
2023-02-15T00:54:12.820Z,56.13
2023-02-15T00:56:40.221Z,58.95
2023-02-15T00:59:09.154Z,67.20
2023-02-15T01:01:36.622Z,65.75
2023-02-15T01:04:04.173Z,62.70
2023-02-15T01:06:31.672Z,64.03
2023-02-15T01:08:59.055Z,64.70
2023-02-15T01:11:26.479Z,65.57
2023-02-15T01:13:56.720Z,62.05
2023-02-15T01:16:25.912Z,59.42
2023-02-15T01:18:53.480Z,62.88
2023-02-15T01:21:22.950Z,62.63
2023-02-15T01:23:50.582Z,62.50
2023-02-15T01:26:18.538Z,58.83
2023-02-15T01:28:46.455Z,63.92
2023-02-15T01:31:18.059Z,63.35
2023-02-15T01:33:47.314Z,62.25
2023-02-15T01:36:15.503Z,66.50
2023-02-15T01:38:43.030Z,67.82
2023-02-15T01:41:27.332Z,62.90
2023-02-15T01:43:59.560Z,60.30
2023-02-15T01:46:41.787Z,64.53
2023-02-15T01:49:20.555Z,63.58
2023-02-15T01:51:51.184Z,66.53
2023-02-15T01:54:30.492Z,67.68
2023-02-15T01:57:04.460Z,73.32
2023-02-15T01:59:34.159Z,76.10
2023-02-15T02:02:03.061Z,74.15
2023-02-15T02:04:56.470Z,73.88
2023-02-15T02:07:27.892Z,73.15
2023-02-15T02:09:55.352Z,74.95
2023-02-15T02:12:26.108Z,74.20
2023-02-15T02:14:54.897Z,70.82
2023-02-15T02:17:42.313Z,68.22
2023-02-15T02:20:26.911Z,60.13
2023-02-15T02:23:00.417Z,53.22
2023-02-15T02:25:31.102Z,51.00
2023-02-15T02:28:16.586Z,53.55
2023-02-15T02:30:53.550Z,52.10
2023-02-15T02:33:30.542Z,52.63
2023-02-15T02:35:57.888Z,51.83
2023-02-15T02:39:05.950Z,49.03
2023-02-15T02:41:45.353Z,54.10
2023-02-15T02:44:32.658Z,55.72
2023-02-15T02:47:11.095Z,58.35
2023-02-15T02:49:43.932Z,67.07
2023-02-15T02:52:43.484Z,69.75
2023-02-15T02:55:35.149Z,69.40
2023-02-15T02:58:27.828Z,72.03
2023-02-15T03:01:06.757Z,67.43
2023-02-15T03:03:51.440Z,67.07
2023-02-15T03:06:50.598Z,63.85
2023-02-15T03:09:43.069Z,63.03
2023-02-15T03:12:32.667Z,64.18
2023-02-15T03:15:05.358Z,60.97
2023-02-15T03:17:36.740Z,56.47
2023-02-15T03:20:14.304Z,59.70
2023-02-15T03:22:54.045Z,55.70
2023-02-15T03:25:33.586Z,54.95
2023-02-15T03:28:06.406Z,51.40
2023-02-15T03:30:37.101Z,51.47
2023-02-15T03:33:07.750Z,52.65
2023-02-15T03:35:44.945Z,48.17
2023-02-15T03:38:17.818Z,49.67
2023-02-15T03:41:06.596Z,48.67
2023-02-15T03:43:45.298Z,49.95
2023-02-15T03:46:53.588Z,50.38
2023-02-15T03:49:38.559Z,46.72
2023-02-15T03:52:07.416Z,42.97
2023-02-15T03:54:48.679Z,43.20
2023-02-15T03:57:37.909Z,47.97
2023-02-15T04:00:37.806Z,47.55
2023-02-15T04:03:11.416Z,45.25
2023-02-15T04:05:39.415Z,48.58
2023-02-15T04:08:08.070Z,50.78
2023-02-15T04:10:53.565Z,49.85
2023-02-15T04:13:23.287Z,48.88
2023-02-15T04:16:07.690Z,48.70
2023-02-15T04:18:58.534Z,51.20
2023-02-15T04:21:46.509Z,48.33
2023-02-15T04:24:33.468Z,42.80
2023-02-15T04:27:01.394Z,40.03
2023-02-15T04:29:29.616Z,42.28
2023-02-15T04:31:59.375Z,40.22
2023-02-15T04:34:28.846Z,40.92
2023-02-15T04:36:56.291Z,39.58
2023-02-15T04:39:23.664Z,38.40
2023-02-15T04:41:51.055Z,40.25
2023-02-15T04:44:18.482Z,40.30
2023-02-15T04:46:45.874Z,37.55
2023-02-15T04:49:13.321Z,42.35
2023-02-15T04:51:40.761Z,43.88
2023-02-15T04:54:08.182Z,41.30
2023-02-15T04:56:38.671Z,46.03
2023-02-15T04:59:06.517Z,46.88
2023-02-15T05:01:33.882Z,43.70
2023-02-15T05:04:01.327Z,42.45
2023-02-15T05:06:28.705Z,44.33
2023-02-15T05:08:56.311Z,40.08
2023-02-15T05:11:23.705Z,40.17
2023-02-15T05:13:51.076Z,37.55
2023-02-15T05:16:18.694Z,36.67
2023-02-15T05:18:46.113Z,37.85
2023-02-15T05:21:14.619Z,37.42
2023-02-15T05:23:41.975Z,35.85
2023-02-15T05:26:39.796Z,37.00
2023-02-15T05:29:07.705Z,35.78
2023-02-15T05:31:36.210Z,36.78
2023-02-15T05:34:04.132Z,36.58
2023-02-15T05:36:31.486Z,37.13
2023-02-15T05:38:58.856Z,38.35
2023-02-15T05:41:26.614Z,37.03
2023-02-15T05:43:57.011Z,38.28
2023-02-15T05:46:24.455Z,36.97
2023-02-15T05:48:51.972Z,38.25
2023-02-15T05:51:19.377Z,37.63
2023-02-15T05:53:46.782Z,40.70
2023-02-15T05:56:14.451Z,36.78
2023-02-15T05:58:43.280Z,38.83
2023-02-15T06:01:18.225Z,39.75
2023-02-15T06:03:46.860Z,39.30
2023-02-15T06:06:14.461Z,36.92
2023-02-15T06:08:41.932Z,40.72
2023-02-15T06:11:09.408Z,37.25
2023-02-15T06:13:38.687Z,38.10
2023-02-15T06:16:07.705Z,38.60
2023-02-15T06:18:35.667Z,38.95
2023-02-15T06:21:03.340Z,39.28
2023-02-15T06:23:30.764Z,38.60
2023-02-15T06:25:58.757Z,40.05
2023-02-15T06:28:26.590Z,41.75
2023-02-15T06:30:54.104Z,38.22
2023-02-15T06:33:21.603Z,38.50
2023-02-15T06:35:48.972Z,40.63
2023-02-15T06:38:16.534Z,39.40
2023-02-15T06:40:43.980Z,36.85
2023-02-15T06:43:11.379Z,38.92
2023-02-15T06:45:38.873Z,40.35
2023-02-15T06:48:08.499Z,39.45
2023-02-15T06:50:36.072Z,39.25
2023-02-15T06:53:03.907Z,37.88
2023-02-15T06:55:31.328Z,43.45
2023-02-15T06:57:58.775Z,42.88
2023-02-15T07:00:26.369Z,42.38
2023-02-15T07:02:58.722Z,41.03
2023-02-15T07:05:32.128Z,41.70
2023-02-15T07:08:00.310Z,41.33
2023-02-15T07:10:28.577Z,39.95
2023-02-15T07:12:56.011Z,40.10
2023-02-15T07:15:23.549Z,38.55
2023-02-15T07:17:51.445Z,38.85
2023-02-15T07:20:23.604Z,38.35
2023-02-15T07:22:51.718Z,37.75
2023-02-15T07:25:19.488Z,37.30
2023-02-15T07:27:47.074Z,36.40
2023-02-15T07:30:17.155Z,34.20
2023-02-15T07:33:05.470Z,32.60
2023-02-15T07:35:34.024Z,34.67
2023-02-15T07:38:02.128Z,35.55
2023-02-15T07:40:29.564Z,35.70
2023-02-15T07:42:59.960Z,36.92
2023-02-15T07:45:27.953Z,36.10
2023-02-15T07:47:55.364Z,40.25
2023-02-15T07:50:23.283Z,40.42
2023-02-15T07:52:50.692Z,40.38
2023-02-15T07:55:19.495Z,42.38
2023-02-15T07:57:48.751Z,41.40
2023-02-15T08:00:18.379Z,40.58
2023-02-15T08:03:10.199Z,39.63
2023-02-15T08:05:38.034Z,36.53
2023-02-15T08:08:05.761Z,38.08
2023-02-15T08:10:52.016Z,38.20
2023-02-15T08:13:19.390Z,39.60
2023-02-15T08:15:51.274Z,38.90
2023-02-15T08:18:19.040Z,40.35
2023-02-15T08:20:52.400Z,39.13
2023-02-15T08:23:20.400Z,41.75
2023-02-15T08:25:48.043Z,37.70
2023-02-15T08:28:15.586Z,36.58
2023-02-15T08:30:43.133Z,37.22
2023-02-15T08:33:10.874Z,36.72
2023-02-15T08:35:38.296Z,33.75
2023-02-15T08:38:06.472Z,34.83
2023-02-15T08:40:33.832Z,30.77
2023-02-15T08:43:01.168Z,30.73
2023-02-15T08:45:28.565Z,29.58
2023-02-15T08:47:56.072Z,29.13
2023-02-15T08:50:23.436Z,29.83
2023-02-15T08:52:51.046Z,29.67
2023-02-15T08:55:18.411Z,30.90
2023-02-15T08:57:46.867Z,32.10
2023-02-15T09:00:14.811Z,31.67
2023-02-15T09:02:42.240Z,30.90
2023-02-15T09:05:10.140Z,32.08
2023-02-15T09:07:37.655Z,32.70
2023-02-15T09:10:05.700Z,31.95
2023-02-15T09:12:33.060Z,31.67
2023-02-15T09:15:00.415Z,32.30
2023-02-15T09:17:27.766Z,32.28
2023-02-15T09:19:55.130Z,32.10
2023-02-15T09:22:22.480Z,30.77
2023-02-15T09:24:50.721Z,32.40
2023-02-15T09:27:18.268Z,30.83
2023-02-15T09:29:45.683Z,30.30
2023-02-15T09:32:15.732Z,31.73
2023-02-15T09:34:43.159Z,30.90
2023-02-15T09:37:10.552Z,32.92
2023-02-15T09:39:42.053Z,34.13
2023-02-15T09:42:23.876Z,31.17
2023-02-15T09:45:18.225Z,31.75
2023-02-15T09:48:07.064Z,30.17
2023-02-15T09:51:03.619Z,29.17
2023-02-15T09:53:57.168Z,29.13
2023-02-15T09:56:43.285Z,27.90
2023-02-15T09:59:47.197Z,28.20
2023-02-15T10:02:44.732Z,25.85
2023-02-15T10:05:26.890Z,26.58
2023-02-15T10:08:24.900Z,26.45
2023-02-15T10:11:34.092Z,26.00
2023-02-15T10:14:38.948Z,26.83
2023-02-15T10:17:24.580Z,25.85
2023-02-15T10:20:19.147Z,26.23
2023-02-15T10:23:26.711Z,24.08
2023-02-15T10:26:05.549Z,26.60
2023-02-15T10:28:45.391Z,25.50
2023-02-15T10:31:48.031Z,28.98
2023-02-15T10:34:25.967Z,28.50
2023-02-15T10:37:15.303Z,28.40
2023-02-15T10:40:00.484Z,28.40
2023-02-15T10:42:46.472Z,29.27
2023-02-15T10:45:42.938Z,28.75
2023-02-15T10:48:28.411Z,30.85
2023-02-15T10:51:01.564Z,29.40
2023-02-15T10:53:34.907Z,32.65
2023-02-15T10:56:17.047Z,29.40
2023-02-15T10:58:48.591Z,30.92
2023-02-15T11:01:45.492Z,29.90
2023-02-15T11:04:24.890Z,31.00
2023-02-15T11:06:55.926Z,30.70
2023-02-15T11:09:30.762Z,32.72
2023-02-15T11:12:01.458Z,31.35
2023-02-15T11:15:12.771Z,32.65
2023-02-15T11:17:51.715Z,32.28
2023-02-15T11:20:29.304Z,41.70
2023-02-15T11:22:57.925Z,31.17
2023-02-15T11:25:34.992Z,34.63
2023-02-15T11:28:13.218Z,33.60
2023-02-15T11:30:53.159Z,33.95
2023-02-15T11:33:28.920Z,34.63
2023-02-15T11:36:14.629Z,34.97
2023-02-15T11:38:44.693Z,35.15
2023-02-15T11:41:20.249Z,36.60
2023-02-15T11:44:43.239Z,36.67
2023-02-15T11:47:13.758Z,36.35
2023-02-15T11:49:41.284Z,36.28
2023-02-15T11:52:16.555Z,41.80
2023-02-15T11:54:47.602Z,39.45
2023-02-15T11:57:23.560Z,39.40
2023-02-15T12:00:23.556Z,36.53
2023-02-15T12:02:54.465Z,34.85
2023-02-15T12:05:25.892Z,40.28
2023-02-15T12:08:04.978Z,40.23
2023-02-15T12:10:38.953Z,40.95
2023-02-15T12:13:15.102Z,37.03
2023-02-15T12:15:48.081Z,35.42
2023-02-15T12:18:36.057Z,36.38
2023-02-15T12:21:12.931Z,41.15
2023-02-15T12:23:52.787Z,39.45
2023-02-15T12:26:35.863Z,40.85
2023-02-15T12:29:16.103Z,39.35
2023-02-15T12:31:47.401Z,36.55
2023-02-15T12:34:40.693Z,37.77
2023-02-15T12:37:30.643Z,38.28
2023-02-15T12:40:20.126Z,36.78
2023-02-15T12:42:48.124Z,35.13
2023-02-15T12:45:31.354Z,36.78
2023-02-15T12:48:15.333Z,35.42
2023-02-15T12:50:54.837Z,38.15
2023-02-15T12:53:31.777Z,38.10
2023-02-15T12:56:06.035Z,38.47
2023-02-15T12:58:37.427Z,39.70
2023-02-15T13:01:05.197Z,36.45
2023-02-15T13:03:33.063Z,40.70
2023-02-15T13:06:02.263Z,39.80
2023-02-15T13:08:34.747Z,35.55
2023-02-15T13:11:13.063Z,36.03
2023-02-15T13:13:51.957Z,33.92
2023-02-15T13:16:36.072Z,37.92
2023-02-15T13:19:18.860Z,36.58
2023-02-15T13:21:48.883Z,37.22
2023-02-15T13:24:26.805Z,34.70
2023-02-15T13:27:14.166Z,34.97
2023-02-15T13:29:50.455Z,35.35
2023-02-15T13:32:37.378Z,34.55
2023-02-15T13:35:09.109Z,35.85
2023-02-15T13:40:31.875Z,33.90
2023-02-15T13:43:26.519Z,36.35
2023-02-15T13:46:23.543Z,33.35
2023-02-15T13:49:12.155Z,33.17
2023-02-15T13:51:46.318Z,32.58
2023-02-15T13:54:31.349Z,34.22
2023-02-15T13:57:26.394Z,34.88
2023-02-15T14:00:21.106Z,31.88
2023-02-15T14:03:15.992Z,30.23
2023-02-15T14:05:52.609Z,32.25
2023-02-15T14:08:54.221Z,33.17
2023-02-15T14:11:31.322Z,29.50
2023-02-15T14:14:04.688Z,30.33
2023-02-15T14:17:06.121Z,28.23
2023-02-15T14:19:55.872Z,27.73
2023-02-15T14:22:35.029Z,26.92
2023-02-15T14:25:40.314Z,27.92
2023-02-15T14:28:18.443Z,27.35
2023-02-15T14:30:51.452Z,27.48
2023-02-15T14:33:37.020Z,26.45
2023-02-15T14:36:08.327Z,28.48
2023-02-15T14:38:48.193Z,29.00
2023-02-15T14:41:37.395Z,29.73
2023-02-15T14:44:18.837Z,28.02
2023-02-15T14:47:16.394Z,27.73
2023-02-15T14:49:43.800Z,28.88
2023-02-15T14:52:12.703Z,27.63
2023-02-15T14:54:40.044Z,31.73
2023-02-15T14:57:07.433Z,30.23
2023-02-15T14:59:53.787Z,29.77
2023-02-15T15:02:26.341Z,28.55
2023-02-15T15:05:17.397Z,29.42
2023-02-15T15:07:44.999Z,29.67
2023-02-15T15:10:17.921Z,28.70
2023-02-15T15:12:49.806Z,30.30
2023-02-15T15:15:29.572Z,31.20
2023-02-15T15:18:10.637Z,30.67
2023-02-15T15:20:43.018Z,29.75
2023-02-15T15:23:16.733Z,28.60
2023-02-15T15:25:46.218Z,32.85
2023-02-15T15:28:35.357Z,32.60
2023-02-15T15:31:47.990Z,33.80
2023-02-15T15:34:34.008Z,33.60
2023-02-15T15:37:13.071Z,35.38
2023-02-15T15:40:08.220Z,38.53
2023-02-15T15:43:20.450Z,36.17
2023-02-15T15:46:05.591Z,28.05
2023-02-15T15:48:42.314Z,35.92
2023-02-15T15:51:21.541Z,34.95
2023-02-15T15:53:54.063Z,36.17
2023-02-15T15:56:35.437Z,39.38
2023-02-15T15:59:13.329Z,42.20
2023-02-15T16:01:43.612Z,47.97
2023-02-15T16:04:26.331Z,38.03
2023-02-15T16:06:54.536Z,37.03
2023-02-15T16:09:24.764Z,39.65
2023-02-15T16:11:54.782Z,47.58
2023-02-15T16:14:22.122Z,49.28
2023-02-15T16:16:52.158Z,43.15
2023-02-15T16:19:23.340Z,43.45
2023-02-15T16:21:51.176Z,46.08
2023-02-15T16:24:29.457Z,41.92
2023-02-15T16:27:28.837Z,39.35
2023-02-15T16:29:56.271Z,41.58
2023-02-15T16:32:28.041Z,41.13
2023-02-15T16:35:00.740Z,40.83
2023-02-15T16:37:33.044Z,39.33
2023-02-15T16:42:28.014Z,38.50
2023-02-15T16:45:06.179Z,40.05
2023-02-15T16:47:38.192Z,43.67
2023-02-15T16:50:06.480Z,44.75
2023-02-15T16:52:35.041Z,40.22
2023-02-15T16:55:06.514Z,40.00
2023-02-15T16:57:37.494Z,41.50
2023-02-15T17:00:08.808Z,41.67
2023-02-15T17:02:56.444Z,42.47
2023-02-15T17:05:24.301Z,42.08
2023-02-15T17:08:03.796Z,44.08
2023-02-15T17:10:37.540Z,42.35
2023-02-15T17:13:12.266Z,43.72
2023-02-15T17:15:42.491Z,46.35
2023-02-15T17:18:20.487Z,46.08
2023-02-15T17:20:50.911Z,43.00
2023-02-15T17:23:32.464Z,43.10
2023-02-15T17:26:03.903Z,51.88
2023-02-15T17:28:32.749Z,58.00
2023-02-15T17:31:00.540Z,61.92
2023-02-15T17:33:33.910Z,55.28
2023-02-15T17:36:23.644Z,49.88
2023-02-15T17:38:59.910Z,46.67
2023-02-15T17:41:29.984Z,45.38
2023-02-15T17:43:58.042Z,45.35
2023-02-15T17:46:26.849Z,44.10
2023-02-15T17:48:56.986Z,43.25
2023-02-15T17:51:24.485Z,45.08
2023-02-15T17:54:10.620Z,45.35
2023-02-15T17:56:40.568Z,46.42
2023-02-15T17:59:09.539Z,42.50
2023-02-15T18:02:02.674Z,42.25
2023-02-15T18:04:50.535Z,45.38
2023-02-15T18:07:38.235Z,45.42
2023-02-15T18:10:37.872Z,47.55
2023-02-15T18:13:05.304Z,49.80
2023-02-15T18:15:32.958Z,49.65
2023-02-15T18:18:00.364Z,47.22
2023-02-15T18:20:39.542Z,47.42
2023-02-15T18:23:09.070Z,49.08
2023-02-15T18:25:36.540Z,49.40
2023-02-15T18:28:04.216Z,49.35
2023-02-15T18:30:31.903Z,50.35
2023-02-15T18:33:00.561Z,51.95
2023-02-15T18:35:31.486Z,47.25
2023-02-15T18:38:00.580Z,46.85
2023-02-15T18:40:29.425Z,49.60
2023-02-15T18:42:57.666Z,46.75
2023-02-15T18:45:28.715Z,49.92
2023-02-15T18:47:56.142Z,48.75
2023-02-15T18:50:27.414Z,49.33
2023-02-15T18:52:54.957Z,47.33
2023-02-15T18:55:24.046Z,43.80
2023-02-15T18:57:53.448Z,43.05
2023-02-15T19:00:28.448Z,46.67
2023-02-15T19:02:56.783Z,46.58
2023-02-15T19:05:25.008Z,47.05
2023-02-15T19:07:52.454Z,44.72
2023-02-15T19:10:22.823Z,43.50
2023-02-15T19:12:51.560Z,45.40
2023-02-15T19:15:24.701Z,45.20
2023-02-15T19:17:55.220Z,48.17
2023-02-15T19:20:25.583Z,47.67
2023-02-15T19:22:55.501Z,45.78
2023-02-15T19:25:27.934Z,45.67
2023-02-15T19:27:56.318Z,47.13
2023-02-15T19:30:29.963Z,45.42
2023-02-15T19:32:59.047Z,43.75
2023-02-15T19:35:31.425Z,45.25
2023-02-15T19:38:01.949Z,43.35
2023-02-15T19:40:34.605Z,44.17
2023-02-15T19:43:03.534Z,46.70
2023-02-15T19:45:32.627Z,44.17
2023-02-15T19:48:03.323Z,44.80
2023-02-15T19:50:33.137Z,45.90
2023-02-15T19:53:02.760Z,45.42
2023-02-15T19:55:33.126Z,45.58
2023-02-15T19:58:01.701Z,47.60
2023-02-15T20:00:31.351Z,46.53
2023-02-15T20:02:59.940Z,46.45
2023-02-15T20:05:31.725Z,46.50
2023-02-15T20:07:59.161Z,50.90
2023-02-15T20:10:31.550Z,47.50
2023-02-15T20:12:59.420Z,46.78
2023-02-15T20:15:31.004Z,46.88
2023-02-15T20:18:00.737Z,44.72
2023-02-15T20:20:41.692Z,46.63
2023-02-15T20:23:27.372Z,48.85
2023-02-15T20:26:01.972Z,47.03
2023-02-15T20:28:31.715Z,47.33
2023-02-15T20:31:00.073Z,48.30
2023-02-15T20:33:27.534Z,50.22
2023-02-15T20:35:55.173Z,47.95
2023-02-15T20:38:29.636Z,50.45
2023-02-15T20:41:17.960Z,48.70
2023-02-15T20:43:45.449Z,47.90
2023-02-15T20:46:12.869Z,49.70
2023-02-15T20:48:40.454Z,52.78
2023-02-15T20:51:19.738Z,54.40
2023-02-15T20:53:48.136Z,54.45
2023-02-15T20:56:20.962Z,53.15
2023-02-15T20:58:49.078Z,52.70
2023-02-15T21:01:19.727Z,50.22
2023-02-15T21:03:48.066Z,51.20
2023-02-15T21:06:18.538Z,47.97
2023-02-15T21:08:46.008Z,50.60
2023-02-15T21:11:21.165Z,50.78
2023-02-15T21:13:50.563Z,49.10
2023-02-15T21:16:18.079Z,48.83
2023-02-15T21:18:45.487Z,49.33
2023-02-15T21:21:20.303Z,51.47
2023-02-15T21:23:48.938Z,51.85
2023-02-15T21:26:19.766Z,48.90
2023-02-15T21:28:48.137Z,50.28
2023-02-15T21:31:20.868Z,50.72
2023-02-15T21:33:48.661Z,50.20
2023-02-15T21:36:22.151Z,52.28
2023-02-15T21:38:50.550Z,50.55
2023-02-15T21:41:39.605Z,50.80
2023-02-15T21:44:40.253Z,49.88
2023-02-15T21:47:39.208Z,101.25
2023-02-15T21:50:27.066Z,49.90
2023-02-15T21:52:54.693Z,49.85
2023-02-15T21:55:22.067Z,48.75
2023-02-15T21:57:49.525Z,48.63
2023-02-15T22:00:22.554Z,49.65
2023-02-15T22:02:53.270Z,57.78
2023-02-15T22:05:30.004Z,106.05
2023-02-15T22:07:57.620Z,83.63
2023-02-15T22:10:31.535Z,66.30
2023-02-15T22:13:03.387Z,58.33
2023-02-15T22:15:37.612Z,62.38
2023-02-15T22:18:06.144Z,56.70
2023-02-15T22:20:33.657Z,56.45
2023-02-15T22:23:01.065Z,61.50
2023-02-15T22:25:28.624Z,58.67
2023-02-15T22:27:56.155Z,55.95
2023-02-15T22:30:36.026Z,111.72
2023-02-15T22:33:03.828Z,78.60
2023-02-15T22:35:34.755Z,62.58
2023-02-15T22:38:02.335Z,57.83
2023-02-15T22:40:33.546Z,54.83
2023-02-15T22:43:04.405Z,51.40
2023-02-15T22:45:33.623Z,51.42
2023-02-15T22:48:01.853Z,52.10
2023-02-15T22:50:32.600Z,49.67
2023-02-15T22:53:02.636Z,55.53
2023-02-15T22:55:36.152Z,48.95
2023-02-15T22:58:04.256Z,50.28
2023-02-15T23:00:39.494Z,51.17
2023-02-15T23:03:26.601Z,49.63
2023-02-15T23:05:54.391Z,49.17
2023-02-15T23:08:21.820Z,50.63
2023-02-15T23:10:54.372Z,50.15
2023-02-15T23:13:31.302Z,50.80
2023-02-15T23:16:01.043Z,52.90
2023-02-15T23:18:34.094Z,49.40
2023-02-15T23:21:18.052Z,51.58
2023-02-15T23:23:48.633Z,50.78
2023-02-15T23:26:25.056Z,50.88
2023-02-15T23:28:53.791Z,50.63
2023-02-15T23:31:26.025Z,55.25
2023-02-15T23:33:54.108Z,79.00
2023-02-15T23:36:34.946Z,75.90
2023-02-15T23:39:31.089Z,67.22
2023-02-15T23:42:11.257Z,62.75
2023-02-15T23:44:39.809Z,59.53
2023-02-15T23:47:45.827Z,56.03
2023-02-15T23:50:24.604Z,54.08
2023-02-15T23:52:53.159Z,50.03
2023-02-15T23:55:21.604Z,51.33
2023-02-15T23:57:49.747Z,48.72
